Time;durP1;ratioP1;P1;durP2;ratioP2;P2;SDS_P1;SDS_P2;PMS_P1;PMS_P2;Temp;Humidity;BMP_temperature;BMP_pressure;BME280_temperature;BME280_humidity;BME280_pressure;Samples;Min_cycle;Max_cycle;Signal;HPM_P1;HPM_P2
2024/04/12 00:01:00;;;;;;;0.52;0.30;;;17.70;81.10;;;;;;5477584;26;19997;-79
2024/04/12 00:03:26;;;;;;;0.20;0.20;;;17.70;80.60;;;;;;5481655;26;20074;-79
2024/04/12 00:05:57;;;;;;;0.52;0.30;;;17.70;80.90;;;;;;5421586;26;20067;-79
2024/04/12 00:08:24;;;;;;;0.40;0.40;;;17.70;80.80;;;;;;5490157;25;19997;-80
2024/04/12 00:10:51;;;;;;;0.20;0.20;;;17.70;80.90;;;;;;5475653;26;20511;-78
2024/04/12 00:13:17;;;;;;;0.30;0.28;;;17.70;81.00;;;;;;5482079;26;20002;-79
2024/04/12 00:15:42;;;;;;;0.45;0.45;;;17.70;81.00;;;;;;5475640;26;20013;-80
2024/04/12 00:18:08;;;;;;;0.30;0.30;;;17.60;81.40;;;;;;5473478;26;19994;-80
2024/04/12 00:20:35;;;;;;;0.25;0.20;;;17.60;81.20;;;;;;5478603;25;20009;-80
2024/04/12 00:23:02;;;;;;;0.63;0.40;;;17.70;81.30;;;;;;5475920;26;20006;-80
2024/04/12 00:25:29;;;;;;;0.40;0.30;;;17.60;81.00;;;;;;5479600;26;19999;-80
2024/04/12 00:27:55;;;;;;;0.30;0.20;;;17.60;81.10;;;;;;5450285;26;20009;-80
2024/04/12 00:30:42;;;;;;;0.20;0.20;;;17.60;81.20;;;;;;5479310;26;20346;-79
2024/04/12 00:33:12;;;;;;;1.25;0.60;;;17.60;81.20;;;;;;5486418;26;20692;-79
2024/04/12 00:35:41;;;;;;;0.30;0.30;;;17.60;81.00;;;;;;5484561;26;19998;-79
2024/04/12 00:38:09;;;;;;;0.40;0.40;;;17.60;80.80;;;;;;5481082;25;19995;-79
2024/04/12 00:40:45;;;;;;;0.32;0.20;;;17.60;81.50;;;;;;5484573;26;20082;-79
2024/04/12 00:43:20;;;;;;;0.20;0.20;;;17.60;81.30;;;;;;5483290;26;20055;-79
2024/04/12 00:45:48;;;;;;;0.70;0.38;;;17.60;81.20;;;;;;5481673;26;20480;-79
2024/04/12 00:48:15;;;;;;;0.30;0.30;;;17.60;81.40;;;;;;5478936;26;20003;-79
2024/04/12 00:50:42;;;;;;;0.68;0.35;;;17.60;81.10;;;;;;5484618;26;19997;-79
2024/04/12 00:53:13;;;;;;;0.13;0.13;;;17.60;81.30;;;;;;5490764;26;20005;-79
2024/04/12 00:55:41;;;;;;;0.30;0.20;;;17.60;81.50;;;;;;5480773;26;20013;-79
2024/04/12 00:58:11;;;;;;;1.58;0.30;;;17.60;81.70;;;;;;5453813;26;19998;-79
2024/04/12 01:00:36;;;;;;;0.38;0.38;;;17.60;81.70;;;;;;5475501;26;19994;-80
2024/04/12 01:03:14;;;;;;;0.55;0.40;;;17.60;81.20;;;;;;5486454;26;20440;-80
2024/04/12 01:05:39;;;;;;;0.20;0.20;;;17.60;81.40;;;;;;5485885;26;20346;-80
2024/04/12 01:08:06;;;;;;;0.45;0.45;;;17.60;81.30;;;;;;5514289;25;20455;-80
2024/04/12 01:10:36;;;;;;;0.43;0.43;;;17.60;81.60;;;;;;5480399;26;19991;-79
2024/04/12 01:13:02;;;;;;;0.50;0.40;;;17.50;81.10;;;;;;5481712;26;19994;-80
2024/04/12 01:15:32;;;;;;;0.32;0.32;;;17.50;81.40;;;;;;5480268;26;19995;-80
2024/04/12 01:18:11;;;;;;;0.30;0.30;;;17.50;81.40;;;;;;5480423;26;20320;-79
2024/04/12 01:20:39;;;;;;;1.08;0.20;;;17.50;81.60;;;;;;5450641;26;19991;-79
2024/04/12 01:23:05;;;;;;;0.38;0.20;;;17.50;81.30;;;;;;5481196;25;20010;-79
2024/04/12 01:25:32;;;;;;;0.43;0.35;;;17.50;81.30;;;;;;5483830;26;20091;-80
2024/04/12 01:27:57;;;;;;;0.68;0.40;;;17.60;81.50;;;;;;5483337;26;20032;-79
2024/04/12 01:30:24;;;;;;;0.30;0.30;;;17.60;81.40;;;;;;5481629;26;20002;-80
2024/04/12 01:32:52;;;;;;;0.40;0.40;;;17.50;81.20;;;;;;5482027;26;20463;-79
2024/04/12 01:35:21;;;;;;;0.40;0.30;;;17.50;81.40;;;;;;5478421;26;20002;-79
2024/04/12 01:37:46;;;;;;;0.50;0.30;;;17.50;81.70;;;;;;5475653;26;20013;-79
2024/04/12 01:40:12;;;;;;;0.30;0.20;;;17.50;81.30;;;;;;5483171;26;20574;-79
2024/04/12 01:42:43;;;;;;;1.20;0.30;;;17.50;81.00;;;;;;5484807;26;20029;-79
2024/04/12 01:45:13;;;;;;;0.30;0.28;;;17.50;81.30;;;;;;5478786;26;20001;-79
2024/04/12 01:47:42;;;;;;;0.35;0.28;;;17.50;81.30;;;;;;5477634;26;20126;-79
2024/04/12 01:50:08;;;;;;;0.77;0.30;;;17.50;80.60;;;;;;5474586;26;20085;-79
2024/04/12 01:52:49;;;;;;;0.45;0.45;;;17.50;82.10;;;;;;5479310;26;20015;-78
2024/04/12 01:55:18;;;;;;;0.40;0.30;;;17.50;81.20;;;;;;5482238;26;20010;-77
2024/04/12 01:57:46;;;;;;;0.30;0.30;;;17.50;81.00;;;;;;5478746;26;19994;-79
2024/04/12 02:00:16;;;;;;;0.22;0.20;;;17.50;81.00;;;;;;5478064;26;20439;-79
2024/04/12 02:02:46;;;;;;;0.55;0.20;;;17.50;81.40;;;;;;5483745;26;20005;-79
2024/04/12 02:05:12;;;;;;;0.30;0.30;;;17.50;81.20;;;;;;5479057;26;20514;-79
2024/04/12 02:07:40;;;;;;;0.30;0.20;;;17.50;81.10;;;;;;5490681;26;20072;-79
2024/04/12 02:10:11;;;;;;;0.30;0.20;;;17.50;81.10;;;;;;5488442;26;19998;-79
2024/04/12 02:12:40;;;;;;;0.20;0.20;;;17.50;80.50;;;;;;5487068;25;20442;-79
2024/04/12 02:15:25;;;;;;;0.60;0.20;;;17.50;81.00;;;;;;5454457;26;20010;-79
2024/04/12 02:17:57;;;;;;;0.30;0.20;;;17.50;80.90;;;;;;5475249;26;20021;-79
2024/04/12 02:20:28;;;;;;;0.30;0.22;;;17.50;80.80;;;;;;5480023;26;20027;-79
2024/04/12 02:22:56;;;;;;;0.50;0.30;;;17.50;81.20;;;;;;5456939;26;19996;-79
2024/04/12 02:25:23;;;;;;;0.60;0.40;;;17.50;81.20;;;;;;5482585;26;20010;-79
2024/04/12 02:27:55;;;;;;;0.20;0.20;;;17.50;80.90;;;;;;5481233;26;20001;-79
2024/04/12 02:30:24;;;;;;;0.30;0.30;;;17.50;80.90;;;;;;5480174;26;19998;-79
2024/04/12 02:32:50;;;;;;;0.40;0.28;;;17.50;80.90;;;;;;5488430;25;20005;-79
2024/04/12 02:35:17;;;;;;;0.40;0.30;;;17.50;80.90;;;;;;5475745;26;19998;-79
2024/04/12 02:37:43;;;;;;;0.40;0.30;;;17.50;80.70;;;;;;5478614;26;20002;-79
2024/04/12 02:40:15;;;;;;;0.30;0.30;;;17.50;80.80;;;;;;5489761;26;20013;-79
2024/04/12 02:42:43;;;;;;;0.25;0.15;;;17.50;80.70;;;;;;5478300;26;20427;-79
2024/04/12 02:45:12;;;;;;;0.20;0.20;;;17.40;80.90;;;;;;5482276;26;19995;-79
2024/04/12 02:47:42;;;;;;;0.20;0.20;;;17.40;81.10;;;;;;5477115;26;19997;-79
2024/04/12 02:50:10;;;;;;;0.30;0.30;;;17.50;80.90;;;;;;5471064;26;20013;-79
2024/04/12 02:52:40;;;;;;;0.77;0.32;;;17.50;80.90;;;;;;5485145;26;20336;-79
2024/04/12 02:55:12;;;;;;;0.40;0.32;;;17.50;80.70;;;;;;5455162;26;20009;-77
2024/04/12 02:57:41;;;;;;;0.30;0.30;;;17.40;80.60;;;;;;5482603;26;20006;-78
2024/04/12 03:00:21;;;;;;;0.50;0.28;;;17.40;80.80;;;;;;5484677;26;20002;-79
2024/04/12 03:02:53;;;;;;;0.40;0.40;;;17.40;80.90;;;;;;5456502;26;20003;-79
2024/04/12 03:05:19;;;;;;;0.20;0.20;;;17.40;80.80;;;;;;5480386;26;20001;-79
2024/04/12 03:07:46;;;;;;;0.30;0.20;;;17.40;80.80;;;;;;5510071;25;20039;-79
2024/04/12 03:10:18;;;;;;;0.50;0.35;;;17.40;80.80;;;;;;5482213;26;19990;-79
2024/04/12 03:12:46;;;;;;;0.32;0.30;;;17.40;80.70;;;;;;5480734;26;20002;-79
2024/04/12 03:15:14;;;;;;;1.20;0.40;;;17.40;80.80;;;;;;5481500;26;19990;-79
2024/04/12 03:17:43;;;;;;;0.52;0.32;;;17.40;80.70;;;;;;5481612;26;20005;-79
2024/04/12 03:20:09;;;;;;;0.40;0.40;;;17.40;80.80;;;;;;5484723;26;20001;-79
2024/04/12 03:22:34;;;;;;;0.63;0.40;;;17.40;80.50;;;;;;5479983;26;20058;-79
2024/04/12 03:25:00;;;;;;;0.43;0.28;;;17.40;80.60;;;;;;5488660;26;20009;-79
2024/04/12 03:27:25;;;;;;;0.20;0.20;;;17.40;81.10;;;;;;5479029;26;20071;-79
2024/04/12 03:29:51;;;;;;;0.57;0.25;;;17.40;80.90;;;;;;5486134;26;19990;-79
2024/04/12 03:32:19;;;;;;;1.13;0.50;;;17.40;80.70;;;;;;5488743;26;20013;-79
2024/04/12 03:34:44;;;;;;;0.40;0.30;;;17.40;80.80;;;;;;5448895;26;20017;-79
2024/04/12 03:38:24;;;;;;;0.22;0.20;;;17.40;80.70;;;;;;5485810;26;19998;-79
2024/04/12 03:40:07;;;;;;;0.38;0.20;;;17.40;80.60;;;;;;5476383;26;20010;-79
2024/04/12 03:42:33;;;;;;;0.50;0.50;;;17.40;80.50;;;;;;5483357;25;20331;-79
2024/04/12 03:44:58;;;;;;;0.55;0.30;;;17.40;80.50;;;;;;5482753;26;20432;-79
2024/04/12 03:47:27;;;;;;;0.20;0.20;;;17.40;80.10;;;;;;5480184;25;19998;-79
2024/04/12 03:49:52;;;;;;;0.30;0.30;;;17.40;80.40;;;;;;5474436;26;20009;-79
2024/04/12 03:52:20;;;;;;;0.38;0.30;;;17.40;80.40;;;;;;5485206;26;19994;-80
2024/04/12 03:54:45;;;;;;;0.82;0.52;;;17.40;80.60;;;;;;5483753;26;20432;-80
2024/04/12 03:57:12;;;;;;;0.35;0.28;;;17.40;80.70;;;;;;5482687;25;20016;-80
2024/04/12 03:59:43;;;;;;;0.40;0.30;;;17.40;80.70;;;;;;5476466;26;20006;-79
2024/04/12 04:02:09;;;;;;;0.70;0.30;;;17.40;80.60;;;;;;5478176;26;20596;-79
2024/04/12 04:04:44;;;;;;;0.28;0.20;;;17.40;80.50;;;;;;5477624;26;20447;-79
2024/04/12 04:07:14;;;;;;;0.32;0.25;;;17.40;80.60;;;;;;5485072;26;19998;-79
2024/04/12 04:09:40;;;;;;;0.20;0.20;;;17.40;80.40;;;;;;5475149;26;20031;-78
2024/04/12 04:12:06;;;;;;;0.30;0.30;;;17.30;80.40;;;;;;5479328;26;19998;-78
2024/04/12 04:14:32;;;;;;;0.60;0.30;;;17.40;80.70;;;;;;5484307;26;20005;-78
2024/04/12 04:17:00;;;;;;;0.40;0.38;;;17.30;80.10;;;;;;5477680;26;20045;-79
2024/04/12 04:19:31;;;;;;;0.30;0.30;;;17.40;80.30;;;;;;5476841;26;20006;-78
2024/04/12 04:24:53;;;;;;;0.93;0.55;;;17.40;80.30;;;;;;5478409;26;20062;-78
2024/04/12 04:27:21;;;;;;;0.17;0.17;;;17.30;80.20;;;;;;5484086;25;20483;-79
2024/04/12 04:29:55;;;;;;;0.47;0.30;;;17.30;80.40;;;;;;5477955;26;20393;-79
2024/04/12 04:32:22;;;;;;;0.32;0.22;;;17.30;80.50;;;;;;5474726;26;19998;-79
2024/04/12 04:35:05;;;;;;;0.30;0.20;;;17.40;80.20;;;;;;5476334;26;19998;-79
2024/04/12 04:37:34;;;;;;;0.40;0.40;;;17.40;80.00;;;;;;5475114;26;20006;-80
2024/04/12 04:40:10;;;;;;;0.70;0.38;;;17.40;80.60;;;;;;5480750;26;20010;-79
2024/04/12 04:42:37;;;;;;;0.30;0.30;;;17.40;80.20;;;;;;5481849;25;19999;-80
2024/04/12 04:45:07;;;;;;;0.28;0.28;;;17.40;80.40;;;;;;5485555;26;20001;-79
2024/04/12 04:47:34;;;;;;;0.30;0.22;;;17.30;80.30;;;;;;5474089;26;20066;-79
2024/04/12 04:50:00;;;;;;;0.25;0.20;;;17.30;80.20;;;;;;5473235;26;20464;-79
2024/04/12 04:52:34;;;;;;;0.20;0.20;;;17.30;80.30;;;;;;5439167;26;19998;-79
2024/04/12 04:55:00;;;;;;;0.30;0.20;;;17.30;80.30;;;;;;5480276;26;20039;-78
2024/04/12 04:57:29;;;;;;;0.40;0.20;;;17.30;80.00;;;;;;5453586;26;20010;-80
2024/04/12 05:00:06;;;;;;;0.57;0.40;;;17.30;80.10;;;;;;5476083;26;20428;-80
2024/04/12 05:02:35;;;;;;;0.40;0.30;;;17.30;80.10;;;;;;5449728;26;20004;-79
2024/04/12 05:05:04;;;;;;;0.35;0.30;;;17.30;80.10;;;;;;5473679;26;20006;-79
2024/04/12 05:07:34;;;;;;;1.15;0.60;;;17.30;80.10;;;;;;5473288;26;20006;-79
2024/04/12 05:10:08;;;;;;;0.77;0.55;;;17.30;80.50;;;;;;5478848;26;20006;-79
2024/04/12 05:12:35;;;;;;;0.30;0.30;;;17.30;80.20;;;;;;5480541;25;20013;-79
2024/04/12 05:15:10;;;;;;;0.20;0.20;;;17.30;80.50;;;;;;5503006;25;19994;-79
2024/04/12 05:17:39;;;;;;;0.30;0.30;;;17.30;80.50;;;;;;5472627;26;20475;-79
2024/04/12 05:20:14;;;;;;;0.40;0.30;;;17.30;80.70;;;;;;5447568;26;20063;-79
2024/04/12 05:22:41;;;;;;;0.25;0.25;;;17.30;80.50;;;;;;5449462;26;20030;-79
2024/04/12 05:25:13;;;;;;;0.30;0.30;;;17.30;80.00;;;;;;5478072;26;20004;-79
2024/04/12 05:27:40;;;;;;;0.22;0.22;;;17.30;80.10;;;;;;5474443;25;20006;-80
2024/04/12 05:30:07;;;;;;;0.50;0.30;;;17.30;80.20;;;;;;5447671;26;19998;-79
2024/04/12 05:32:32;;;;;;;0.30;0.30;;;17.30;80.10;;;;;;5450328;26;20324;-79
2024/04/12 05:34:59;;;;;;;0.25;0.25;;;17.30;80.10;;;;;;5479747;26;20470;-79
2024/04/12 05:37:28;;;;;;;0.50;0.38;;;17.30;80.20;;;;;;5480133;26;20010;-79
2024/04/12 05:39:56;;;;;;;0.22;0.20;;;17.30;80.30;;;;;;5483721;26;20002;-79
2024/04/12 05:42:22;;;;;;;0.43;0.20;;;17.30;80.90;;;;;;5482130;26;20002;-79
2024/04/12 05:44:52;;;;;;;0.30;0.30;;;17.30;79.90;;;;;;5476110;26;20033;-79
2024/04/12 05:47:21;;;;;;;0.32;0.20;;;17.30;80.70;;;;;;5453135;26;20021;-80
2024/04/12 05:49:46;;;;;;;0.20;0.20;;;17.30;80.30;;;;;;5448289;26;19994;-80
2024/04/12 05:52:12;;;;;;;0.20;0.15;;;17.30;80.00;;;;;;5444064;26;20009;-80
2024/04/12 05:54:44;;;;;;;0.60;0.35;;;17.30;80.10;;;;;;5478092;26;20074;-80
2024/04/12 05:57:11;;;;;;;0.20;0.20;;;17.30;80.00;;;;;;5478434;25;20030;-80
2024/04/12 05:59:37;;;;;;;0.38;0.38;;;17.30;80.00;;;;;;5479313;26;20096;-80
2024/04/12 06:02:05;;;;;;;0.20;0.20;;;17.30;80.30;;;;;;5480123;26;20008;-80
2024/04/12 06:04:31;;;;;;;0.30;0.30;;;17.30;80.50;;;;;;5446017;26;20005;-80
2024/04/12 06:06:59;;;;;;;0.22;0.20;;;17.30;80.30;;;;;;5468515;26;20332;-80
2024/04/12 06:09:25;;;;;;;0.32;0.30;;;17.30;80.50;;;;;;5475019;26;20063;-79
2024/04/12 06:11:51;;;;;;;0.20;0.20;;;17.30;80.30;;;;;;5474340;26;20393;-79
2024/04/12 06:14:20;;;;;;;0.30;0.20;;;17.30;80.30;;;;;;5476752;26;19994;-80
2024/04/12 06:16:51;;;;;;;0.40;0.30;;;17.30;80.50;;;;;;5473685;26;20047;-79
2024/04/12 06:19:17;;;;;;;0.30;0.30;;;17.30;80.60;;;;;;5481014;26;19998;-79
2024/04/12 06:21:47;;;;;;;0.30;0.30;;;17.30;80.10;;;;;;5474269;26;20058;-79
2024/04/12 06:24:15;;;;;;;0.20;0.17;;;17.30;80.50;;;;;;5479691;26;20001;-79
2024/04/12 06:26:41;;;;;;;0.30;0.30;;;17.30;80.40;;;;;;5480668;26;20443;-79
2024/04/12 06:29:07;;;;;;;0.40;0.20;;;17.30;80.40;;;;;;5477105;26;20483;-79
2024/04/12 06:31:35;;;;;;;0.63;0.30;;;17.30;80.60;;;;;;5474553;26;20017;-79
2024/04/12 06:34:05;;;;;;;0.43;0.22;;;17.30;80.50;;;;;;5453017;26;20008;-79
2024/04/12 06:36:34;;;;;;;0.20;0.20;;;17.30;80.60;;;;;;5476686;26;20067;-76
2024/04/12 06:39:05;;;;;;;0.50;0.50;;;17.20;80.50;;;;;;5477623;26;20009;-77
2024/04/12 06:41:34;;;;;;;0.85;0.30;;;17.30;81.30;;;;;;5478188;26;20026;-76
2024/04/12 06:43:59;;;;;;;0.40;0.40;;;17.30;81.60;;;;;;5477325;26;20002;-76
2024/04/12 06:46:27;;;;;;;0.47;0.40;;;17.20;82.00;;;;;;5449820;26;20005;-76
2024/04/12 06:48:59;;;;;;;4.70;0.32;;;17.20;81.00;;;;;;5474038;26;19994;-76
2024/04/12 06:51:25;;;;;;;1.17;0.60;;;17.20;81.80;;;;;;5482191;26;20078;-77
2024/04/12 06:53:54;;;;;;;1.52;0.50;;;17.10;80.30;;;;;;5479924;26;20009;-77
2024/04/12 06:56:20;;;;;;;0.98;0.85;;;17.10;80.10;;;;;;5481394;26;19999;-76
2024/04/12 06:58:46;;;;;;;1.00;0.60;;;17.10;80.90;;;;;;5448740;26;20008;-76
2024/04/12 07:01:12;;;;;;;1.88;0.80;;;17.10;80.00;;;;;;5480169;26;20005;-75
2024/04/12 07:03:45;;;;;;;1.08;1.00;;;16.90;76.10;;;;;;5482837;26;20440;-76
2024/04/12 07:06:14;;;;;;;1.65;1.20;;;16.60;75.70;;;;;;5476632;26;20320;-75
2024/04/12 07:08:49;;;;;;;1.90;0.85;;;16.30;76.70;;;;;;5453115;26;20006;-75
2024/04/12 07:11:16;;;;;;;1.10;1.00;;;16.10;77.90;;;;;;5476936;26;20440;-75
2024/04/12 07:13:49;;;;;;;1.77;1.10;;;15.90;73.60;;;;;;5476052;26;20014;-76
2024/04/12 07:16:18;;;;;;;1.88;1.15;;;15.70;73.60;;;;;;5481816;26;20456;-76
2024/04/12 07:18:44;;;;;;;1.13;1.00;;;15.70;73.80;;;;;;5478701;26;20026;-76
2024/04/12 07:21:16;;;;;;;1.52;0.98;;;15.80;73.70;;;;;;5480638;26;20078;-76
2024/04/12 07:23:51;;;;;;;1.33;1.15;;;15.70;74.40;;;;;;5479715;26;20066;-76
2024/04/12 07:26:29;;;;;;;1.55;1.10;;;15.70;75.20;;;;;;5475440;26;20149;-75
2024/04/12 07:29:01;;;;;;;1.45;1.02;;;15.70;75.20;;;;;;5473989;26;20437;-75
2024/04/12 07:31:30;;;;;;;1.58;1.30;;;15.60;75.60;;;;;;5474566;26;20062;-76
2024/04/12 07:33:59;;;;;;;1.42;1.05;;;15.70;75.20;;;;;;5485075;26;20009;-76
2024/04/12 07:36:30;;;;;;;2.63;1.48;;;15.70;75.50;;;;;;5484578;26;19994;-76
2024/04/12 07:39:01;;;;;;;1.95;1.00;;;15.70;75.60;;;;;;5480251;26;19995;-75
2024/04/12 07:41:48;;;;;;;1.73;1.20;;;15.70;75.80;;;;;;5478715;26;20005;-75
2024/04/12 07:44:14;;;;;;;1.95;1.10;;;15.70;76.30;;;;;;5467419;26;20038;-76
2024/04/12 07:46:48;;;;;;;1.02;1.00;;;15.60;76.40;;;;;;5476614;26;20547;-75
2024/04/12 07:49:14;;;;;;;;;;;15.60;76.50;;;;;;5482605;26;20485;-75
2024/04/12 07:51:40;;;;;;;1.25;0.93;;;15.60;76.70;;;;;;5480409;26;19948;-75
2024/04/12 07:54:11;;;;;;;1.65;1.10;;;15.60;76.90;;;;;;5480950;26;20328;-75
2024/04/12 07:56:43;;;;;;;1.98;1.27;;;15.60;76.90;;;;;;5484119;26;20520;-75
2024/04/12 07:59:16;;;;;;;1.35;1.25;;;15.70;76.90;;;;;;5479024;26;20537;-75
2024/04/12 08:01:48;;;;;;;2.67;1.30;;;15.70;76.60;;;;;;5479288;26;19994;-76
2024/04/12 08:04:25;;;;;;;3.15;1.38;;;15.80;76.40;;;;;;5479178;26;20064;-75
2024/04/12 08:09:25;;;;;;;1.20;1.10;;;15.90;76.00;;;;;;5488309;26;20012;-76
2024/04/12 08:11:59;;;;;;;4.13;1.20;;;15.90;76.80;;;;;;5489171;26;19993;-76
2024/04/12 08:14:26;;;;;;;2.13;1.00;;;16.00;76.70;;;;;;5434911;26;20014;-76
2024/04/12 08:16:53;;;;;;;1.13;1.02;;;16.10;76.80;;;;;;5419943;26;20035;-76
2024/04/12 08:19:22;;;;;;;1.00;1.00;;;16.10;76.60;;;;;;5431750;26;20007;-75
2024/04/12 08:21:48;;;;;;;2.72;1.23;;;16.10;76.80;;;;;;5440533;26;20013;-74
2024/04/12 08:24:23;;;;;;;1.40;1.10;;;16.20;76.60;;;;;;5437030;26;20362;-78
2024/04/12 08:26:51;;;;;;;1.17;0.80;;;16.20;76.60;;;;;;5437999;26;20486;-79
2024/04/12 08:29:23;;;;;;;1.42;1.17;;;16.30;76.50;;;;;;5442976;26;20055;-79
2024/04/12 08:32:04;;;;;;;0.90;0.90;;;16.30;76.50;;;;;;5440047;26;20033;-79
2024/04/12 08:34:31;;;;;;;3.05;1.00;;;16.40;76.50;;;;;;5440541;26;20018;-80
2024/04/12 08:36:57;;;;;;;1.25;0.80;;;16.50;76.20;;;;;;5444347;26;19994;-77
2024/04/12 08:39:25;;;;;;;1.45;0.80;;;16.50;76.40;;;;;;5433154;26;20013;-78
2024/04/12 08:42:01;;;;;;;1.00;0.80;;;16.50;76.30;;;;;;5443815;26;19995;-78
2024/04/12 08:44:29;;;;;;;1.40;1.13;;;16.60;76.30;;;;;;5438726;26;20456;-78
2024/04/12 08:49:51;;;;;;;1.80;0.88;;;16.60;76.40;;;;;;5484631;26;21238;-78
2024/04/12 08:52:30;;;;;;;0.70;0.70;;;16.60;76.30;;;;;;5414402;26;20019;-78
2024/04/12 08:54:59;;;;;;;0.70;0.70;;;16.70;76.40;;;;;;5438427;26;20070;-78
2024/04/12 08:57:25;;;;;;;1.10;0.80;;;16.70;76.30;;;;;;5436857;26;20437;-78
2024/04/12 08:59:58;;;;;;;0.85;0.70;;;16.80;77.00;;;;;;5414164;26;19999;-78
2024/04/12 09:02:26;;;;;;;1.03;0.93;;;16.80;76.00;;;;;;5438582;26;20075;-78
2024/04/12 09:04:52;;;;;;;0.80;0.65;;;16.90;76.10;;;;;;5503553;26;20769;-78
2024/04/12 09:07:20;;;;;;;3.35;0.80;;;17.00;76.10;;;;;;5414490;26;20084;-79
2024/04/12 09:09:53;;;;;;;0.77;0.68;;;17.00;76.20;;;;;;5449046;26;19999;-79
2024/04/12 09:12:24;;;;;;;1.05;0.60;;;17.00;76.00;;;;;;5444681;26;20393;-79
2024/04/12 09:14:59;;;;;;;0.40;0.40;;;17.00;76.20;;;;;;5386530;26;19995;-79
2024/04/12 09:17:28;;;;;;;0.90;0.77;;;17.10;76.00;;;;;;5435542;26;20021;-79
2024/04/12 09:19:54;;;;;;;0.88;0.70;;;17.20;76.00;;;;;;5460868;26;20374;-78
2024/04/12 09:22:21;;;;;;;0.70;0.70;;;17.20;75.80;;;;;;5448346;26;20007;-78
2024/04/12 09:24:50;;;;;;;0.57;0.50;;;17.30;75.70;;;;;;5446376;26;20536;-79
2024/04/12 09:27:22;;;;;;;1.25;0.82;;;17.30;75.70;;;;;;5415988;26;20009;-79
2024/04/12 09:29:58;;;;;;;1.88;0.60;;;17.40;75.70;;;;;;5414834;26;19995;-79
2024/04/12 09:35:12;;;;;;;1.40;1.02;;;17.60;75.40;;;;;;5441990;26;20014;-79
2024/04/12 09:37:39;;;;;;;1.15;0.88;;;17.60;76.40;;;;;;5437964;26;20044;-79
2024/04/12 09:40:24;;;;;;;2.15;0.80;;;17.70;76.10;;;;;;5442676;26;20043;-78
2024/04/12 09:45:27;;;;;;;1.35;0.40;;;17.70;76.90;;;;;;5410504;26;20464;-79
2024/04/12 10:37:54;;;;;;;0.50;0.30;;;18.30;73.30;;;;;;5434275;26;20464;-79
2024/04/12 10:40:21;;;;;;;0.47;0.47;;;18.40;73.20;;;;;;5443586;26;20025;-80
2024/04/12 10:42:52;;;;;;;0.80;0.30;;;18.40;73.10;;;;;;5442488;26;20014;-80
2024/04/12 10:45:17;;;;;;;0.40;0.30;;;18.40;73.00;;;;;;5442127;26;20011;-80
2024/04/12 10:47:44;;;;;;;1.13;0.45;;;18.40;73.00;;;;;;5412412;26;20079;-80
2024/04/12 10:50:10;;;;;;;0.40;0.40;;;18.40;72.80;;;;;;5413979;26;20011;-80
2024/04/12 10:52:38;;;;;;;0.30;0.30;;;18.40;72.70;;;;;;5438550;26;20017;-80
2024/04/12 10:55:09;;;;;;;0.30;0.30;;;18.50;72.80;;;;;;5438725;26;20003;-80
2024/04/12 10:57:43;;;;;;;0.40;0.40;;;18.50;72.80;;;;;;5383356;26;20455;-80
2024/04/12 11:00:14;;;;;;;0.60;0.60;;;18.50;72.60;;;;;;5403620;26;20004;-80
2024/04/12 11:02:54;;;;;;;1.10;0.40;;;18.50;72.60;;;;;;5489835;26;20108;-80
2024/04/12 11:07:53;;;;;;;0.40;0.40;;;18.50;72.50;;;;;;5437301;26;20022;-80
2024/04/12 11:10:54;;;;;;;0.40;0.30;;;18.60;72.40;;;;;;5442337;26;20025;-80
2024/04/12 11:13:11;;;;;;;1.55;0.30;;;18.60;72.40;;;;;;5441539;26;20014;-80
2024/04/12 11:31:59;;;;;;;0.57;0.57;;;19.00;73.60;;;;;;5437921;26;20019;-79
2024/04/12 11:34:26;;;;;;;0.52;0.52;;;18.90;73.30;;;;;;5445482;26;20336;-80
2024/04/12 11:36:55;;;;;;;0.30;0.30;;;19.00;73.30;;;;;;5440717;26;20014;-79
2024/04/12 11:39:27;;;;;;;1.63;0.50;;;18.80;73.70;;;;;;5439963;26;20006;-79
2024/04/12 11:41:55;;;;;;;1.08;0.40;;;18.90;73.60;;;;;;5435884;26;20059;-79
2024/04/12 11:44:21;;;;;;;0.52;0.52;;;18.90;73.50;;;;;;5437135;26;20011;-79
2024/04/12 11:46:48;;;;;;;0.40;0.30;;;18.90;73.40;;;;;;5056659;26;9999803;-79
2024/04/12 11:49:25;;;;;;;0.57;0.43;;;18.90;73.30;;;;;;5441371;26;20027;-78
2024/04/12 11:51:55;;;;;;;1.60;0.50;;;18.90;73.10;;;;;;5435936;26;20013;-78
2024/04/12 11:54:28;;;;;;;0.40;0.40;;;19.00;73.10;;;;;;5431065;26;20089;-78
2024/04/12 11:57:00;;;;;;;1.15;0.47;;;18.90;72.60;;;;;;5402389;26;19999;-78
2024/04/12 11:59:27;;;;;;;0.40;0.30;;;19.00;74.50;;;;;;5426782;26;20021;-78
2024/04/12 12:01:59;;;;;;;0.30;0.30;;;19.00;73.90;;;;;;5432913;26;20000;-78
2024/04/12 12:04:28;;;;;;;2.33;0.50;;;18.90;74.20;;;;;;5406706;26;20006;-78
2024/04/12 12:06:54;;;;;;;0.52;0.52;;;19.00;74.60;;;;;;5435517;26;19998;-78
2024/04/12 12:09:20;;;;;;;0.30;0.30;;;19.00;74.20;;;;;;5409027;26;20068;-78
2024/04/12 12:11:49;;;;;;;0.70;0.70;;;19.10;73.40;;;;;;5438195;26;20497;-78
2024/04/12 12:14:15;;;;;;;0.40;0.35;;;19.10;74.20;;;;;;5435982;26;20473;-78
2024/04/12 12:16:41;;;;;;;0.90;0.40;;;19.10;74.20;;;;;;5438794;26;20026;-78
2024/04/12 12:19:06;;;;;;;0.98;0.45;;;19.10;73.80;;;;;;5441341;26;20340;-78
2024/04/12 12:21:36;;;;;;;0.28;0.28;;;19.10;74.10;;;;;;5438038;26;20011;-78
2024/04/12 12:24:03;;;;;;;0.57;0.20;;;19.10;74.10;;;;;;5406765;26;20008;-78
2024/04/12 12:26:31;;;;;;;0.52;0.30;;;19.20;73.30;;;;;;5432556;26;20021;-78
2024/04/12 12:28:57;;;;;;;0.30;0.30;;;19.20;73.60;;;;;;5495141;25;19999;-78
2024/04/12 12:31:22;;;;;;;0.57;0.50;;;19.30;73.00;;;;;;5442689;26;20100;-78
2024/04/12 12:33:49;;;;;;;0.80;0.30;;;19.40;73.10;;;;;;5474592;26;20021;-78
2024/04/12 12:36:17;;;;;;;0.28;0.28;;;19.30;73.30;;;;;;5414816;26;19998;-78
2024/04/12 12:38:43;;;;;;;1.48;0.40;;;19.30;73.60;;;;;;5443096;26;20010;-79
2024/04/12 12:41:09;;;;;;;2.13;0.35;;;19.30;73.30;;;;;;5442848;26;20461;-78
2024/04/12 12:43:36;;;;;;;0.30;0.30;;;19.30;73.60;;;;;;5413555;26;20072;-78
2024/04/12 12:46:02;;;;;;;0.30;0.30;;;19.40;72.10;;;;;;5444284;26;20413;-78
2024/04/12 12:48:27;;;;;;;0.30;0.30;;;19.40;71.00;;;;;;5385396;26;20015;-78
2024/04/12 12:50:54;;;;;;;0.65;0.45;;;19.50;72.00;;;;;;5411372;26;20084;-79
2024/04/12 12:53:22;;;;;;;0.40;0.40;;;19.40;72.60;;;;;;5438485;26;20014;-78
2024/04/12 12:55:49;;;;;;;0.70;0.60;;;19.40;73.40;;;;;;5435834;26;20084;-78
2024/04/12 12:58:18;;;;;;;0.50;0.47;;;19.50;72.70;;;;;;5413327;26;20075;-78
2024/04/12 13:00:44;;;;;;;0.30;0.30;;;19.60;71.60;;;;;;5442279;26;20096;-78
2024/04/12 13:03:12;;;;;;;0.60;0.35;;;19.50;71.50;;;;;;5440961;26;20336;-79
2024/04/12 13:05:40;;;;;;;0.40;0.40;;;19.50;69.30;;;;;;5408531;26;20039;-78
2024/04/12 13:08:06;;;;;;;0.25;0.25;;;19.50;68.80;;;;;;5498579;26;20058;-78
2024/04/12 13:10:33;;;;;;;0.43;0.35;;;19.50;70.00;;;;;;5442717;26;21844;-79
2024/04/12 13:13:04;;;;;;;0.43;0.30;;;19.40;70.30;;;;;;5413631;26;20003;-79
2024/04/12 13:15:30;;;;;;;0.28;0.28;;;19.40;71.40;;;;;;5410781;26;20006;-79
2024/04/12 13:17:56;;;;;;;0.45;0.30;;;19.40;70.20;;;;;;5400519;26;20011;-79
2024/04/12 13:20:22;;;;;;;0.28;0.28;;;19.40;70.30;;;;;;5437884;26;20370;-79
2024/04/12 13:22:47;;;;;;;0.50;0.30;;;19.40;70.30;;;;;;5436671;26;20015;-79
2024/04/12 13:25:14;;;;;;;0.40;0.40;;;19.40;69.50;;;;;;5496359;26;20706;-79
2024/04/12 13:27:51;;;;;;;0.32;0.32;;;19.50;70.30;;;;;;5441574;26;20067;-79
2024/04/12 13:30:17;;;;;;;0.45;0.30;;;19.50;68.60;;;;;;5439539;26;20003;-79
2024/04/12 13:32:43;;;;;;;0.30;0.30;;;19.50;69.40;;;;;;5438382;26;20083;-78
2024/04/12 13:35:12;;;;;;;0.38;0.38;;;19.50;69.40;;;;;;5414515;26;20003;-79
2024/04/12 13:37:38;;;;;;;0.57;0.30;;;19.60;69.00;;;;;;5424148;26;20476;-78
2024/04/12 13:40:08;;;;;;;0.32;0.10;;;19.60;69.80;;;;;;5411074;26;20022;-78
2024/04/12 13:42:39;;;;;;;0.75;0.30;;;19.50;70.70;;;;;;5413629;26;20034;-79
2024/04/12 13:53:20;;;;;;;0.30;0.30;;;19.70;69.90;;;;;;5439426;26;20018;-79
2024/04/12 13:55:46;;;;;;;0.28;0.20;;;19.60;69.40;;;;;;5380331;26;20003;-79
2024/04/12 13:58:12;;;;;;;1.25;0.40;;;19.70;69.20;;;;;;5410880;26;19999;-79
2024/04/12 14:00:48;;;;;;;0.25;0.25;;;19.70;68.60;;;;;;5415378;26;20003;-78
2024/04/12 14:03:21;;;;;;;0.73;0.50;;;19.70;68.40;;;;;;5438197;26;20457;-79
2024/04/12 14:05:53;;;;;;;0.40;0.40;;;19.70;68.40;;;;;;5440371;26;20025;-79
2024/04/12 14:08:20;;;;;;;0.85;0.50;;;19.70;68.60;;;;;;5377937;26;20014;-79
2024/04/12 14:10:46;;;;;;;1.42;0.45;;;19.70;68.80;;;;;;5412506;26;20007;-79
2024/04/12 14:13:19;;;;;;;0.47;0.47;;;19.70;69.10;;;;;;5419378;26;19998;-79
2024/04/12 14:15:47;;;;;;;0.60;0.60;;;19.70;69.40;;;;;;5441672;26;21540;-81
2024/04/12 14:18:14;;;;;;;0.40;0.40;;;19.70;69.60;;;;;;5471851;26;20224;-80
2024/04/12 14:20:40;;;;;;;0.63;0.45;;;;;;;;;;5469025;26;20321;-81
2024/04/12 14:23:06;;;;;;;0.40;0.40;;;19.80;98.80;;;;;;5437641;26;20014;-80
2024/04/12 14:25:34;;;;;;;0.43;0.40;;;;;;;;;;5440302;26;20023;-80
2024/04/12 14:28:00;;;;;;;0.52;0.40;;;19.80;90.70;;;;;;5412867;26;20018;-79